Airfield :
LOGIN :

Register | Disclaimer

   EN    FR    IT 

 










Legend :    VFR   Marginal VFR   IFR   Intensive IFR   Very Intensive IFR
Visi :
Ceiling :
>= 8 km
>= 3000ft
5 to 8 km
1000 to 3000 ft
1500m to 5 km
500 to 1000 ft
800 to 1500m
200 to 500 ft
< 800m
< 200 ft
Symbols :   Thunderstorms  Fog  Heavy snow  Heavy precipitations  Wind > 20 kt
SIGMETs :     Misc.  Thunderstorms  Icing  Turbulence  Mountain Waves  Volcanic Ashes







- Airport Elevation : 1306 ft
- IATA code : ACH


LSZR - Alten Rhein

CURRENT METAR :
  • 180750Z 29006KT 9999 FEW013 BKN036 20/17 Q1022 NOSIG RMK C

EXPIRED METARs :
  • 180720Z 29006KT 9999 FEW013 BKN036 20/17 Q1022 NOSIG RMK C
  • 180650Z AUTO 28006KT 9999 OVC036 20/17 Q1021
  • 180620Z 27005KT 9999 BKN034 19/17 Q1021 NOSIG RMK B
  • 180550Z 25002KT 9999 FEW030 19/16 Q1021 NOSIG RMK A
  • 180520Z 25002KT 9999 FEW030 19/16 Q1021 NOSIG RMK A

TAF TAF LSZR
Valid from the 18 at 06:00 until the 18 at 15:00 UTC


180525Z 1806/1815 VRB03KT 9999 FEW018 BKN040
ATIS : +41 71 858 51 66
No reported NOTAMs for that airfield.



MET'MAP, your aeronautical weather chart ! - Copyright ORBIFLY December 2007 - Disclaimer

ORBIFLY MET'MAP TEAM :

Programming & Development : Alexandra Zaïnal
Concept & Development : Baudouin d'Aumeries
Co-Development & Prog : Marc-Olivier Méhu
Technical & hardware support : Manuel Goepfert

Contact : metmap@orbifly.com




SOURCES & CREDITS :

   NOAA